sensor_id;sensor_type;location;lat;lon;timestamp;pressure;altitude;pressure_sealevel;temperature;humidity
51249;BME280;39642;47.556;18.728;2023-03-04T00:00:31;99691.62;;;21.00;26.39
51249;BME280;39642;47.556;18.728;2023-03-04T00:02:57;99690.78;;;20.99;26.21
51249;BME280;39642;47.556;18.728;2023-03-04T00:05:23;99698.63;;;21.01;26.12
51249;BME280;39642;47.556;18.728;2023-03-04T00:07:49;99695.03;;;21.02;26.10
51249;BME280;39642;47.556;18.728;2023-03-04T00:10:15;99695.87;;;21.03;26.00
51249;BME280;39642;47.556;18.728;2023-03-04T00:12:41;99693.22;;;21.03;25.89
51249;BME280;39642;47.556;18.728;2023-03-04T00:15:07;99690.56;;;21.03;25.99
51249;BME280;39642;47.556;18.728;2023-03-04T00:17:33;99694.09;;;21.03;26.04
51249;BME280;39642;47.556;18.728;2023-03-04T00:19:59;99699.38;;;21.03;26.06
51249;BME280;39642;47.556;18.728;2023-03-04T00:22:25;99701.16;;;21.03;26.24
51249;BME280;39642;47.556;18.728;2023-03-04T00:24:50;99696.75;;;21.03;25.95
51249;BME280;39642;47.556;18.728;2023-03-04T00:27:16;99695.03;;;21.02;25.83
51249;BME280;39642;47.556;18.728;2023-03-04T00:29:42;99693.34;;;21.01;26.07
51249;BME280;39642;47.556;18.728;2023-03-04T00:32:08;99687.16;;;21.00;25.88
51249;BME280;39642;47.556;18.728;2023-03-04T00:34:34;99696.00;;;21.01;26.18
51249;BME280;39642;47.556;18.728;2023-03-04T00:37:00;99691.62;;;21.00;26.24
51249;BME280;39642;47.556;18.728;2023-03-04T00:39:28;99682.00;;;20.99;26.13
51249;BME280;39642;47.556;18.728;2023-03-04T00:41:54;99698.81;;;20.98;25.96
51249;BME280;39642;47.556;18.728;2023-03-04T00:44:20;99698.81;;;20.98;26.01
51249;BME280;39642;47.556;18.728;2023-03-04T00:46:46;99692.66;;;20.97;26.05
51249;BME280;39642;47.556;18.728;2023-03-04T00:49:12;99687.38;;;20.97;26.07
51249;BME280;39642;47.556;18.728;2023-03-04T00:51:38;99680.37;;;20.96;26.14
51249;BME280;39642;47.556;18.728;2023-03-04T00:54:03;99691.81;;;20.97;26.04
51249;BME280;39642;47.556;18.728;2023-03-04T00:56:29;99685.69;;;20.96;25.95
51249;BME280;39642;47.556;18.728;2023-03-04T00:58:55;99683.03;;;20.96;25.94
51249;BME280;39642;47.556;18.728;2023-03-04T01:01:21;99683.88;;;20.97;25.84
51249;BME280;39642;47.556;18.728;2023-03-04T01:03:47;99677.75;;;20.96;25.91
51249;BME280;39642;47.556;18.728;2023-03-04T01:06:13;99673.22;;;20.98;25.75
51249;BME280;39642;47.556;18.728;2023-03-04T01:08:39;99663.56;;;20.97;25.78
51249;BME280;39642;47.556;18.728;2023-03-04T01:11:05;99672.25;;;20.99;25.75
51249;BME280;39642;47.556;18.728;2023-03-04T01:13:31;99670.44;;;21.00;25.63
51249;BME280;39642;47.556;18.728;2023-03-04T01:15:58;99666.88;;;21.01;25.57
51249;BME280;39642;47.556;18.728;2023-03-04T01:18:23;99675.66;;;21.02;25.64
51249;BME280;39642;47.556;18.728;2023-03-04T01:20:49;99664.09;;;21.03;25.49
51249;BME280;39642;47.556;18.728;2023-03-04T01:23:16;99664.09;;;21.03;25.42
51249;BME280;39642;47.556;18.728;2023-03-04T01:25:41;99660.59;;;21.02;25.45
51249;BME280;39642;47.556;18.728;2023-03-04T01:28:07;99664.09;;;21.03;25.40
51249;BME280;39642;47.556;18.728;2023-03-04T01:30:33;99655.31;;;21.02;25.40
51249;BME280;39642;47.556;18.728;2023-03-04T01:32:59;99658.81;;;21.03;25.32
51249;BME280;39642;47.556;18.728;2023-03-04T01:35:25;99657.97;;;21.02;25.35
51249;BME280;39642;47.556;18.728;2023-03-04T01:37:51;99663.25;;;21.02;25.42
51249;BME280;39642;47.556;18.728;2023-03-04T01:40:17;99652.66;;;21.02;25.29
51249;BME280;39642;47.556;18.728;2023-03-04T01:42:43;99651.81;;;21.02;25.48
51249;BME280;39642;47.556;18.728;2023-03-04T01:45:13;99650.97;;;21.01;25.31
51249;BME280;39642;47.556;18.728;2023-03-04T01:47:43;99650.97;;;21.01;25.32
51249;BME280;39642;47.556;18.728;2023-03-04T01:50:27;99647.47;;;21.00;25.45
51249;BME280;39642;47.556;18.728;2023-03-04T01:52:55;99647.47;;;21.00;25.45
51249;BME280;39642;47.556;18.728;2023-03-04T01:55:22;99646.53;;;21.02;25.44
51249;BME280;39642;47.556;18.728;2023-03-04T01:57:49;99647.38;;;21.02;25.29
51249;BME280;39642;47.556;18.728;2023-03-04T02:02:45;99643.81;;;21.03;25.27
51249;BME280;39642;47.556;18.728;2023-03-04T02:05:12;99639.34;;;21.04;25.23
51249;BME280;39642;47.556;18.728;2023-03-04T02:07:38;99637.53;;;21.04;25.12
51249;BME280;39642;47.556;18.728;2023-03-04T02:10:04;99636.69;;;21.04;25.17
51249;BME280;39642;47.556;18.728;2023-03-04T02:12:30;99628.75;;;21.04;25.12
51249;BME280;39642;47.556;18.728;2023-03-04T02:14:56;99632.25;;;21.04;25.12
51249;BME280;39642;47.556;18.728;2023-03-04T02:17:26;99632.25;;;21.04;25.05
51249;BME280;39642;47.556;18.728;2023-03-04T02:20:06;99627.78;;;21.05;25.04
51249;BME280;39642;47.556;18.728;2023-03-04T02:22:39;99624.31;;;21.04;25.01
51249;BME280;39642;47.556;18.728;2023-03-04T02:25:10;99622.63;;;21.03;24.98
51249;BME280;39642;47.556;18.728;2023-03-04T02:27:37;99622.63;;;21.03;24.95
51249;BME280;39642;47.556;18.728;2023-03-04T02:30:04;99630.56;;;21.03;24.87
51249;BME280;39642;47.556;18.728;2023-03-04T02:32:30;99620.91;;;21.02;25.09
51249;BME280;39642;47.556;18.728;2023-03-04T02:34:56;99619.09;;;21.03;25.09
51249;BME280;39642;47.556;18.728;2023-03-04T02:37:22;99614.78;;;21.02;25.01
51249;BME280;39642;47.556;18.728;2023-03-04T02:39:48;99605.97;;;21.01;24.84
51249;BME280;39642;47.556;18.728;2023-03-04T02:42:15;99606.81;;;21.02;24.90
51249;BME280;39642;47.556;18.728;2023-03-04T02:44:44;99599.81;;;21.00;24.91
51249;BME280;39642;47.556;18.728;2023-03-04T02:47:14;99594.53;;;21.00;24.88
51249;BME280;39642;47.556;18.728;2023-03-04T02:49:42;99598.97;;;21.00;24.81
51249;BME280;39642;47.556;18.728;2023-03-04T02:52:13;99602.59;;;20.99;24.92
51249;BME280;39642;47.556;18.728;2023-03-04T02:54:39;99594.63;;;20.99;24.91
51249;BME280;39642;47.556;18.728;2023-03-04T02:57:08;99600.88;;;20.98;24.89
51249;BME280;39642;47.556;18.728;2023-03-04T02:59:35;99602.66;;;20.97;24.84
51249;BME280;39642;47.556;18.728;2023-03-04T03:02:01;99593.88;;;20.97;24.83
51249;BME280;39642;47.556;18.728;2023-03-04T03:04:27;99599.19;;;20.97;24.92
51249;BME280;39642;47.556;18.728;2023-03-04T03:06:53;99594.81;;;20.96;24.89
51249;BME280;39642;47.556;18.728;2023-03-04T03:09:19;99590.41;;;20.96;24.92
51249;BME280;39642;47.556;18.728;2023-03-04T03:11:46;99589.53;;;20.96;24.69
51249;BME280;39642;47.556;18.728;2023-03-04T03:14:12;99587.84;;;20.95;24.79
51249;BME280;39642;47.556;18.728;2023-03-04T03:16:37;99583.47;;;20.94;24.69
51249;BME280;39642;47.556;18.728;2023-03-04T03:19:04;99586.12;;;20.94;25.04
51249;BME280;39642;47.556;18.728;2023-03-04T03:21:30;99577.34;;;20.93;24.69
51249;BME280;39642;47.556;18.728;2023-03-04T03:23:56;99576.50;;;20.93;24.70
51249;BME280;39642;47.556;18.728;2023-03-04T03:26:22;99574.81;;;20.92;24.71
51249;BME280;39642;47.556;18.728;2023-03-04T03:28:48;99582.75;;;20.92;24.85
51249;BME280;39642;47.556;18.728;2023-03-04T03:31:14;99573.09;;;20.91;24.66
51249;BME280;39642;47.556;18.728;2023-03-04T03:33:40;99583.69;;;20.91;24.77
51249;BME280;39642;47.556;18.728;2023-03-04T03:36:07;99572.34;;;20.89;24.75
51249;BME280;39642;47.556;18.728;2023-03-04T03:38:33;99580.28;;;20.89;24.63
51249;BME280;39642;47.556;18.728;2023-03-04T03:40:59;99582.91;;;20.89;24.49
51249;BME280;39642;47.556;18.728;2023-03-04T03:43:25;99574.91;;;20.90;24.60
51249;BME280;39642;47.556;18.728;2023-03-04T03:45:51;99585.47;;;20.90;24.58
51249;BME280;39642;47.556;18.728;2023-03-04T03:48:17;99583.75;;;20.89;24.58
51249;BME280;39642;47.556;18.728;2023-03-04T03:50:43;99582.06;;;20.88;24.42
51249;BME280;39642;47.556;18.728;2023-03-04T03:53:10;99574.97;;;20.89;24.58
51249;BME280;39642;47.556;18.728;2023-03-04T03:55:36;99571.50;;;20.88;24.72
51249;BME280;39642;47.556;18.728;2023-03-04T03:58:04;99567.13;;;20.87;24.63
51249;BME280;39642;47.556;18.728;2023-03-04T04:00:30;99572.34;;;20.89;24.62
51249;BME280;39642;47.556;18.728;2023-03-04T04:02:57;99574.97;;;20.89;24.41
51249;BME280;39642;47.556;18.728;2023-03-04T04:05:24;99576.78;;;20.88;24.50
51249;BME280;39642;47.556;18.728;2023-03-04T04:07:50;99561.84;;;20.87;24.37
51249;BME280;39642;47.556;18.728;2023-03-04T04:10:16;99567.13;;;20.87;24.48
51249;BME280;39642;47.556;18.728;2023-03-04T04:12:42;99564.47;;;20.87;24.38
51249;BME280;39642;47.556;18.728;2023-03-04T04:15:10;99572.34;;;20.89;24.26
51249;BME280;39642;47.556;18.728;2023-03-04T04:17:36;99568.00;;;20.88;24.25
51249;BME280;39642;47.556;18.728;2023-03-04T04:20:03;99572.34;;;20.89;24.26
51249;BME280;39642;47.556;18.728;2023-03-04T04:22:29;99574.97;;;20.89;24.31
51249;BME280;39642;47.556;18.728;2023-03-04T04:24:55;99575.81;;;20.89;24.35
51249;BME280;39642;47.556;18.728;2023-03-04T04:27:21;99570.53;;;20.89;24.13
51249;BME280;39642;47.556;18.728;2023-03-04T04:29:47;99570.44;;;20.91;24.12
51249;BME280;39642;47.556;18.728;2023-03-04T04:32:13;99566.87;;;20.92;24.26
51249;BME280;39642;47.556;18.728;2023-03-04T04:34:39;99563.34;;;20.91;24.01
51249;BME280;39642;47.556;18.728;2023-03-04T04:37:05;99562.41;;;20.92;23.93
51249;BME280;39642;47.556;18.728;2023-03-04T04:39:31;99562.41;;;20.92;24.09
51249;BME280;39642;47.556;18.728;2023-03-04T04:41:56;99557.97;;;20.93;23.98
51249;BME280;39642;47.556;18.728;2023-03-04T04:44:22;99557.13;;;20.92;23.99
51249;BME280;39642;47.556;18.728;2023-03-04T04:46:48;99559.66;;;20.94;23.85
51249;BME280;39642;47.556;18.728;2023-03-04T04:49:14;99559.66;;;20.94;23.98
51249;BME280;39642;47.556;18.728;2023-03-04T04:51:40;99559.66;;;20.94;23.91
51249;BME280;39642;47.556;18.728;2023-03-04T04:54:06;99557.00;;;20.94;23.71
51249;BME280;39642;47.556;18.728;2023-03-04T04:56:32;99559.66;;;20.94;23.78
51249;BME280;39642;47.556;18.728;2023-03-04T04:59:00;99561.38;;;20.95;23.77
51249;BME280;39642;47.556;18.728;2023-03-04T05:01:27;99553.44;;;20.95;23.70
51249;BME280;39642;47.556;18.728;2023-03-04T05:03:53;99557.75;;;20.96;23.75
51249;BME280;39642;47.556;18.728;2023-03-04T05:06:21;99558.63;;;20.96;23.77
51249;BME280;39642;47.556;18.728;2023-03-04T05:08:48;99559.47;;;20.97;23.66
51249;BME280;39642;47.556;18.728;2023-03-04T05:11:14;99554.19;;;20.97;23.70
51249;BME280;39642;47.556;18.728;2023-03-04T05:13:40;99555.88;;;20.98;23.69
51249;BME280;39642;47.556;18.728;2023-03-04T05:16:07;99553.22;;;20.98;23.62
51249;BME280;39642;47.556;18.728;2023-03-04T05:18:33;99546.25;;;20.97;23.66
51249;BME280;39642;47.556;18.728;2023-03-04T05:21:00;99544.44;;;20.97;23.59
51249;BME280;39642;47.556;18.728;2023-03-04T05:23:29;99549.72;;;20.97;23.63
51249;BME280;39642;47.556;18.728;2023-03-04T05:25:55;99547.09;;;20.97;23.62
51249;BME280;39642;47.556;18.728;2023-03-04T05:28:22;99545.28;;;20.98;23.56
51249;BME280;39642;47.556;18.728;2023-03-04T05:30:48;99550.56;;;20.98;23.56
51249;BME280;39642;47.556;18.728;2023-03-04T05:33:15;99547.94;;;20.98;23.59
51249;BME280;39642;47.556;18.728;2023-03-04T05:35:42;99544.34;;;20.99;23.49
51249;BME280;39642;47.556;18.728;2023-03-04T05:38:11;99547.00;;;20.99;23.46
51249;BME280;39642;47.556;18.728;2023-03-04T05:40:39;99551.44;;;20.98;23.48
51249;BME280;39642;47.556;18.728;2023-03-04T05:43:05;99542.53;;;20.99;23.54
51249;BME280;39642;47.556;18.728;2023-03-04T05:45:32;99541.69;;;20.99;23.51
51249;BME280;39642;47.556;18.728;2023-03-04T05:47:58;99547.00;;;20.99;23.51
51249;BME280;39642;47.556;18.728;2023-03-04T05:50:24;99545.19;;;20.99;23.45
51249;BME280;39642;47.556;18.728;2023-03-04T05:52:50;99553.97;;;21.00;23.50
51249;BME280;39642;47.556;18.728;2023-03-04T05:55:16;99553.97;;;21.00;23.50
51249;BME280;39642;47.556;18.728;2023-03-04T05:57:43;99551.31;;;21.00;23.41
51249;BME280;39642;47.556;18.728;2023-03-04T06:00:10;99550.41;;;21.01;23.45
51249;BME280;39642;47.556;18.728;2023-03-04T06:02:38;99554.72;;;21.02;23.47
51249;BME280;39642;47.556;18.728;2023-03-04T06:05:05;99552.09;;;21.02;23.44
51249;BME280;39642;47.556;18.728;2023-03-04T06:07:31;99552.91;;;21.03;23.38
51249;BME280;39642;47.556;18.728;2023-03-04T06:09:57;99560.78;;;21.04;23.33
51249;BME280;39642;47.556;18.728;2023-03-04T06:12:23;99568.72;;;21.04;23.38
51249;BME280;39642;47.556;18.728;2023-03-04T06:14:49;99568.63;;;21.06;23.38
51249;BME280;39642;47.556;18.728;2023-03-04T06:17:15;99565.09;;;21.05;23.41
51249;BME280;39642;47.556;18.728;2023-03-04T06:19:41;99573.94;;;21.06;23.46
51249;BME280;39642;47.556;18.728;2023-03-04T06:22:08;99580.91;;;21.07;23.42
51249;BME280;39642;47.556;18.728;2023-03-04T06:24:34;99575.59;;;21.07;23.44
51249;BME280;39642;47.556;18.728;2023-03-04T06:27:00;99580.91;;;21.07;23.46
51249;BME280;39642;47.556;18.728;2023-03-04T06:29:26;99578.16;;;21.08;23.44
51249;BME280;39642;47.556;18.728;2023-03-04T06:31:52;99585.25;;;21.08;23.51
51249;BME280;39642;47.556;18.728;2023-03-04T06:34:18;99583.38;;;21.10;23.52
51249;BME280;39642;47.556;18.728;2023-03-04T06:36:44;99578.06;;;21.10;23.45
51249;BME280;39642;47.556;18.728;2023-03-04T06:39:10;99588.53;;;21.11;23.49
51249;BME280;39642;47.556;18.728;2023-03-04T06:41:36;99582.41;;;21.11;23.45
51249;BME280;39642;47.556;18.728;2023-03-04T06:44:03;99581.44;;;21.12;23.55
51249;BME280;39642;47.556;18.728;2023-03-04T06:46:29;99583.16;;;21.13;23.46
51249;BME280;39642;47.556;18.728;2023-03-04T06:48:55;99581.34;;;21.13;23.55
51249;BME280;39642;47.556;18.728;2023-03-04T06:51:21;99584.00;;;21.13;23.43
51249;BME280;39642;47.556;18.728;2023-03-04T06:53:47;99576.91;;;21.14;23.43
51249;BME280;39642;47.556;18.728;2023-03-04T06:56:13;99576.81;;;21.15;23.45
51249;BME280;39642;47.556;18.728;2023-03-04T06:58:41;99581.16;;;21.16;23.53
51249;BME280;39642;47.556;18.728;2023-03-04T07:03:35;99576.59;;;21.18;23.40
51249;BME280;39642;47.556;18.728;2023-03-04T07:06:00;99576.59;;;21.18;23.45
51249;BME280;39642;47.556;18.728;2023-03-04T07:08:26;99575.75;;;21.18;23.42
51249;BME280;39642;47.556;18.728;2023-03-04T07:10:52;99582.66;;;21.20;23.48
51249;BME280;39642;47.556;18.728;2023-03-04T07:13:18;99577.34;;;21.20;23.51
51249;BME280;39642;47.556;18.728;2023-03-04T07:15:44;99575.59;;;21.21;23.49
51249;BME280;39642;47.556;18.728;2023-03-04T07:18:10;99578.22;;;21.21;23.51
51249;BME280;39642;47.556;18.728;2023-03-04T07:20:36;99572.94;;;21.21;23.49
51249;BME280;39642;47.556;18.728;2023-03-04T07:23:01;99586.06;;;21.23;23.41
51249;BME280;39642;47.556;18.728;2023-03-04T07:25:27;99581.59;;;21.23;23.51
51249;BME280;39642;47.556;18.728;2023-03-04T07:27:53;99582.47;;;21.24;23.44
51249;BME280;39642;47.556;18.728;2023-03-04T07:30:19;99578.03;;;21.24;23.53
51249;BME280;39642;47.556;18.728;2023-03-04T07:32:45;99580.59;;;21.26;23.46
51249;BME280;39642;47.556;18.728;2023-03-04T07:35:11;99585.00;;;21.25;23.57
51249;BME280;39642;47.556;18.728;2023-03-04T07:37:37;99584.91;;;21.27;23.52
51249;BME280;39642;47.556;18.728;2023-03-04T07:40:05;99583.94;;;21.28;23.56
51249;BME280;39642;47.556;18.728;2023-03-04T07:42:33;99580.38;;;21.29;23.52
51249;BME280;39642;47.556;18.728;2023-03-04T07:44:59;99583.78;;;21.31;23.56
51249;BME280;39642;47.556;18.728;2023-03-04T07:47:27;99582.81;;;21.32;23.59
51249;BME280;39642;47.556;18.728;2023-03-04T07:49:53;99580.16;;;21.32;23.56
51249;BME280;39642;47.556;18.728;2023-03-04T07:52:19;99581.03;;;21.32;23.52
51249;BME280;39642;47.556;18.728;2023-03-04T07:54:45;99583.56;;;21.34;23.52
51249;BME280;39642;47.556;18.728;2023-03-04T07:57:10;99583.56;;;21.34;23.51
51249;BME280;39642;47.556;18.728;2023-03-04T07:59:36;99584.41;;;21.34;23.56
51249;BME280;39642;47.556;18.728;2023-03-04T08:02:02;99587.94;;;21.35;23.58
51249;BME280;39642;47.556;18.728;2023-03-04T08:04:28;99580.81;;;21.35;23.58
51249;BME280;39642;47.556;18.728;2023-03-04T08:06:54;99582.50;;;21.36;23.63
51249;BME280;39642;47.556;18.728;2023-03-04T08:09:20;99581.66;;;21.36;23.63
51249;BME280;39642;47.556;18.728;2023-03-04T08:11:46;99582.41;;;21.38;23.67
51249;BME280;39642;47.556;18.728;2023-03-04T08:14:12;99572.78;;;21.37;23.70
51249;BME280;39642;47.556;18.728;2023-03-04T08:16:38;99578.94;;;21.37;23.70
51249;BME280;39642;47.556;18.728;2023-03-04T08:19:06;99578.94;;;21.37;23.72
51249;BME280;39642;47.556;18.728;2023-03-04T08:21:32;99570.84;;;21.39;23.72
51249;BME280;39642;47.556;18.728;2023-03-04T08:24:01;99565.56;;;21.39;23.70
51249;BME280;39642;47.556;18.728;2023-03-04T08:26:36;99571.72;;;21.39;23.70
51249;BME280;39642;47.556;18.728;2023-03-04T08:29:04;99568.22;;;21.39;23.77
51249;BME280;39642;47.556;18.728;2023-03-04T08:31:30;99568.22;;;21.39;23.79
51249;BME280;39642;47.556;18.728;2023-03-04T08:33:56;99581.44;;;21.39;23.85
51249;BME280;39642;47.556;18.728;2023-03-04T08:36:22;99582.31;;;21.39;23.89
51249;BME280;39642;47.556;18.728;2023-03-04T08:38:48;99568.22;;;21.39;23.90
51249;BME280;39642;47.556;18.728;2023-03-04T08:41:14;99570.00;;;21.38;23.93
51249;BME280;39642;47.556;18.728;2023-03-04T08:43:41;99566.44;;;21.39;23.90
51249;BME280;39642;47.556;18.728;2023-03-04T08:46:08;99562.91;;;21.39;24.00
51249;BME280;39642;47.556;18.728;2023-03-04T08:48:34;99564.63;;;21.40;23.97
51249;BME280;39642;47.556;18.728;2023-03-04T08:51:06;99568.22;;;21.39;23.97
51249;BME280;39642;47.556;18.728;2023-03-04T08:53:32;99555.09;;;21.37;24.17
51249;BME280;39642;47.556;18.728;2023-03-04T08:55:58;99560.19;;;21.40;24.16
51249;BME280;39642;47.556;18.728;2023-03-04T08:58:24;99554.03;;;21.40;23.99
51249;BME280;39642;47.556;18.728;2023-03-04T09:00:50;99551.37;;;21.40;24.06
51249;BME280;39642;47.556;18.728;2023-03-04T09:03:16;99552.25;;;21.40;23.96
51249;BME280;39642;47.556;18.728;2023-03-04T09:05:45;99553.97;;;21.41;23.99
51249;BME280;39642;47.556;18.728;2023-03-04T09:08:12;99547.91;;;21.39;24.07
51249;BME280;39642;47.556;18.728;2023-03-04T09:10:38;99549.66;;;21.39;23.98
51249;BME280;39642;47.556;18.728;2023-03-04T09:13:04;99547.03;;;21.39;23.97
51249;BME280;39642;47.556;18.728;2023-03-04T09:15:31;99545.25;;;21.39;24.00
51249;BME280;39642;47.556;18.728;2023-03-04T09:18:03;99542.50;;;21.41;23.88
51249;BME280;39642;47.556;18.728;2023-03-04T09:20:30;99544.31;;;21.40;23.85
51249;BME280;39642;47.556;18.728;2023-03-04T09:22:56;99546.03;;;21.41;23.90
51249;BME280;39642;47.556;18.728;2023-03-04T09:25:22;99538.94;;;21.42;23.94
51249;BME280;39642;47.556;18.728;2023-03-04T09:27:48;99538.84;;;21.44;23.91
51249;BME280;39642;47.556;18.728;2023-03-04T09:30:14;99541.25;;;21.47;23.82
51249;BME280;39642;47.556;18.728;2023-03-04T09:32:40;99536.81;;;21.47;23.73
51249;BME280;39642;47.556;18.728;2023-03-04T09:35:07;99535.87;;;21.48;23.68
51249;BME280;39642;47.556;18.728;2023-03-04T09:37:35;99541.06;;;21.50;23.81
51249;BME280;39642;47.556;18.728;2023-03-04T09:40:01;99526.00;;;21.50;23.80
51249;BME280;39642;47.556;18.728;2023-03-04T09:42:36;99529.41;;;21.52;23.69
51249;BME280;39642;47.556;18.728;2023-03-04T09:45:05;99522.41;;;21.51;23.72
51249;BME280;39642;47.556;18.728;2023-03-04T09:47:36;99525.81;;;21.53;23.91
51249;BME280;39642;47.556;18.728;2023-03-04T09:50:06;99516.06;;;21.54;23.75
51249;BME280;39642;47.556;18.728;2023-03-04T09:55:37;99511.50;;;21.56;23.48
51249;BME280;39642;47.556;18.728;2023-03-04T10:01:32;99503.56;;;21.56;23.57
51249;BME280;39642;47.556;18.728;2023-03-04T10:06:32;99490.31;;;21.56;23.62
51249;BME280;39642;47.556;18.728;2023-03-04T10:09:08;99487.66;;;21.56;23.73
51249;BME280;39642;47.556;18.728;2023-03-04T10:14:25;99493.72;;;21.58;23.70
51249;BME280;39642;47.556;18.728;2023-03-04T10:17:04;99485.84;;;21.56;23.82
51249;BME280;39642;47.556;18.728;2023-03-04T10:19:53;99488.41;;;21.58;23.80
51249;BME280;39642;47.556;18.728;2023-03-04T10:24:53;99480.47;;;21.58;23.93
51249;BME280;39642;47.556;18.728;2023-03-04T10:27:20;99476.00;;;21.58;23.90
51249;BME280;39642;47.556;18.728;2023-03-04T10:29:48;99471.69;;;21.57;23.79
51249;BME280;39642;47.556;18.728;2023-03-04T10:32:17;99477.91;;;21.56;23.80
51249;BME280;39642;47.556;18.728;2023-03-04T10:34:43;99481.41;;;21.57;23.97
51249;BME280;39642;47.556;18.728;2023-03-04T10:37:09;99469.13;;;21.56;23.85
51249;BME280;39642;47.556;18.728;2023-03-04T10:39:39;99468.28;;;21.55;24.00
51249;BME280;39642;47.556;18.728;2023-03-04T10:44:42;99458.53;;;21.56;24.23
51249;BME280;39642;47.556;18.728;2023-03-04T10:47:09;99456.72;;;21.56;24.14
51249;BME280;39642;47.556;18.728;2023-03-04T10:49:58;99455.88;;;21.56;24.21
51249;BME280;39642;47.556;18.728;2023-03-04T10:52:39;99455.03;;;21.55;24.30
51249;BME280;39642;47.556;18.728;2023-03-04T10:55:15;99436.50;;;21.55;24.25
51249;BME280;39642;47.556;18.728;2023-03-04T10:57:43;99444.44;;;21.55;24.26
51249;BME280;39642;47.556;18.728;2023-03-04T11:00:24;99442.63;;;21.56;24.29
51249;BME280;39642;47.556;18.728;2023-03-04T11:02:51;99442.53;;;21.57;24.24
51249;BME280;39642;47.556;18.728;2023-03-04T11:05:22;99430.97;;;21.58;24.22
51249;BME280;39642;47.556;18.728;2023-03-04T11:07:53;99436.16;;;21.60;24.06
51249;BME280;39642;47.556;18.728;2023-03-04T11:13:10;99437.00;;;21.60;24.12
51249;BME280;39642;47.556;18.728;2023-03-04T11:18:40;99426.31;;;21.62;24.11
51249;BME280;39642;47.556;18.728;2023-03-04T11:21:16;99422.78;;;21.61;24.19
51249;BME280;39642;47.556;18.728;2023-03-04T11:26:14;99412.19;;;21.61;24.16
51249;BME280;39642;47.556;18.728;2023-03-04T11:31:23;99410.50;;;21.60;24.26
51249;BME280;39642;47.556;18.728;2023-03-04T11:33:56;99407.88;;;21.60;24.10
51249;BME280;39642;47.556;18.728;2023-03-04T11:36:37;99397.38;;;21.59;24.26
51249;BME280;39642;47.556;18.728;2023-03-04T11:39:13;99399.16;;;21.58;24.24
51249;BME280;39642;47.556;18.728;2023-03-04T11:41:59;99389.53;;;21.57;24.25
51249;BME280;39642;47.556;18.728;2023-03-04T11:44:28;99387.84;;;21.56;24.26
51249;BME280;39642;47.556;18.728;2023-03-04T11:49:46;99397.59;;;21.56;24.23
51249;BME280;39642;47.556;18.728;2023-03-04T12:04:00;99377.66;;;21.50;24.37
51249;BME280;39642;47.556;18.728;2023-03-04T12:25:51;99344.94;;;21.51;24.30
51249;BME280;39642;47.556;18.728;2023-03-04T12:33:41;99338.66;;;21.52;24.38
51249;BME280;39642;47.556;18.728;2023-03-04T12:39:12;99320.13;;;21.52;24.41
51249;BME280;39642;47.556;18.728;2023-03-04T12:44:19;99322.03;;;21.50;24.52
51249;BME280;39642;47.556;18.728;2023-03-04T12:47:10;99320.34;;;21.49;24.51
51249;BME280;39642;47.556;18.728;2023-03-04T12:52:48;99308.91;;;21.49;24.61
51249;BME280;39642;47.556;18.728;2023-03-04T12:55:21;99308.78;;;21.50;24.63
51249;BME280;39642;47.556;18.728;2023-03-04T12:57:50;99304.53;;;21.48;24.68
51249;BME280;39642;47.556;18.728;2023-03-04T13:03:20;99309.97;;;21.46;24.65
51249;BME280;39642;47.556;18.728;2023-03-04T13:08:39;99293.72;;;21.38;24.56
51249;BME280;39642;47.556;18.728;2023-03-04T13:11:32;99285.03;;;21.36;24.59
51249;BME280;39642;47.556;18.728;2023-03-04T13:16:46;99288.75;;;21.33;24.54
51249;BME280;39642;47.556;18.728;2023-03-04T13:24:50;99269.56;;;21.30;24.57
51249;BME280;39642;47.556;18.728;2023-03-04T13:27:48;99270.53;;;21.29;24.59
51249;BME280;39642;47.556;18.728;2023-03-04T13:51:35;99230.31;;;21.24;24.34
51249;BME280;39642;47.556;18.728;2023-03-04T13:54:12;99237.38;;;21.23;24.43
51249;BME280;39642;47.556;18.728;2023-03-04T13:56:48;99231.25;;;21.23;24.39
51249;BME280;39642;47.556;18.728;2023-03-04T13:59:47;99230.31;;;21.24;24.37
51249;BME280;39642;47.556;18.728;2023-03-04T14:02:19;99229.44;;;21.23;24.34
51249;BME280;39642;47.556;18.728;2023-03-04T14:07:25;99221.28;;;21.26;24.44
51249;BME280;39642;47.556;18.728;2023-03-04T14:12:21;99218.84;;;21.23;24.54
51249;BME280;39642;47.556;18.728;2023-03-04T14:14:53;99222.56;;;21.20;24.44
51249;BME280;39642;47.556;18.728;2023-03-04T14:17:23;99212.94;;;21.19;24.48
51249;BME280;39642;47.556;18.728;2023-03-04T14:19:50;99220.97;;;21.18;24.50
51249;BME280;39642;47.556;18.728;2023-03-04T14:22:21;99215.78;;;21.16;24.41
51249;BME280;39642;47.556;18.728;2023-03-04T14:25:05;99221.06;;;21.16;24.43
51249;BME280;39642;47.556;18.728;2023-03-04T14:27:34;99219.41;;;21.15;24.35
51249;BME280;39642;47.556;18.728;2023-03-04T14:30:03;99214.09;;;21.15;24.65
51249;BME280;39642;47.556;18.728;2023-03-04T14:32:30;99222.16;;;21.14;24.56
51249;BME280;39642;47.556;18.728;2023-03-04T14:35:00;99215.06;;;21.14;24.73
51249;BME280;39642;47.556;18.728;2023-03-04T14:37:36;99224.78;;;21.14;24.38
51249;BME280;39642;47.556;18.728;2023-03-04T14:40:17;99215.06;;;21.14;24.76
51249;BME280;39642;47.556;18.728;2023-03-04T14:42:44;99211.47;;;21.15;24.42
51249;BME280;39642;47.556;18.728;2023-03-04T14:45:14;99222.03;;;21.15;24.40
51249;BME280;39642;47.556;18.728;2023-03-04T14:47:43;99215.78;;;21.16;24.37
51249;BME280;39642;47.556;18.728;2023-03-04T14:50:17;99206.06;;;21.17;24.36
51249;BME280;39642;47.556;18.728;2023-03-04T14:52:46;99214.84;;;21.17;24.31
51249;BME280;39642;47.556;18.728;2023-03-04T14:57:40;99217.81;;;21.13;24.77